sensor_id;sensor_type;location;lat;lon;timestamp;pressure;altitude;pressure_sealevel;temperature;humidity
72525;BME280;60547;48.502;8.996;2023-07-13T00:00:38;97878.63;;;20.10;67.36
72525;BME280;60547;48.502;8.996;2023-07-13T00:03:04;97876.78;;;20.07;67.53
72525;BME280;60547;48.502;8.996;2023-07-13T00:05:30;97864.94;;;20.03;67.78
72525;BME280;60547;48.502;8.996;2023-07-13T00:07:56;97869.06;;;20.02;66.88
72525;BME280;60547;48.502;8.996;2023-07-13T00:10:22;97872.16;;;20.04;66.46
72525;BME280;60547;48.502;8.996;2023-07-13T00:12:48;97864.69;;;20.01;65.64
72525;BME280;60547;48.502;8.996;2023-07-13T00:15:20;97872.88;;;19.99;65.29
72525;BME280;60547;48.502;8.996;2023-07-13T00:17:52;97870.59;;;20.03;64.75
72525;BME280;60547;48.502;8.996;2023-07-13T00:20:19;97871.88;;;20.02;65.20
72525;BME280;60547;48.502;8.996;2023-07-13T00:22:47;97874.25;;;20.09;64.76
72525;BME280;60547;48.502;8.996;2023-07-13T00:25:14;97868.59;;;20.09;63.89
72525;BME280;60547;48.502;8.996;2023-07-13T00:27:42;97868.13;;;20.16;64.34
72525;BME280;60547;48.502;8.996;2023-07-13T00:30:08;97869.91;;;20.14;64.02
72525;BME280;60547;48.502;8.996;2023-07-13T00:32:34;97866.31;;;20.13;63.62
72525;BME280;60547;48.502;8.996;2023-07-13T00:35:01;97867.59;;;20.12;63.30
72525;BME280;60547;48.502;8.996;2023-07-13T00:37:26;97863.94;;;20.06;63.35
72525;BME280;60547;48.502;8.996;2023-07-13T00:39:52;97864.72;;;20.07;62.64
72525;BME280;60547;48.502;8.996;2023-07-13T00:42:17;97872.16;;;20.04;62.87
72525;BME280;60547;48.502;8.996;2023-07-13T00:46:02;97874.75;;;20.08;62.01
72525;BME280;60547;48.502;8.996;2023-07-13T00:47:52;97867.28;;;20.05;61.30
72525;BME280;60547;48.502;8.996;2023-07-13T00:50:19;97876.78;;;20.07;60.61
72525;BME280;60547;48.502;8.996;2023-07-13T00:52:49;97876.06;;;20.12;60.59
72525;BME280;60547;48.502;8.996;2023-07-13T00:55:16;97872.69;;;20.08;60.54
72525;BME280;60547;48.502;8.996;2023-07-13T00:57:44;97867.03;;;20.08;60.28
72525;BME280;60547;48.502;8.996;2023-07-13T01:00:10;97871.31;;;19.98;60.79
72525;BME280;60547;48.502;8.996;2023-07-13T01:02:39;97875.69;;;19.99;60.38
72525;BME280;60547;48.502;8.996;2023-07-13T01:05:13;97880.59;;;19.98;60.76
72525;BME280;60547;48.502;8.996;2023-07-13T01:07:42;97876.94;;;19.92;60.90
72525;BME280;60547;48.502;8.996;2023-07-13T01:10:09;97876.59;;;19.85;61.41
72525;BME280;60547;48.502;8.996;2023-07-13T01:12:35;97866.75;;;19.75;61.53
72525;BME280;60547;48.502;8.996;2023-07-13T01:15:02;97869.59;;;19.75;61.16
72525;BME280;60547;48.502;8.996;2023-07-13T01:17:28;97876.72;;;19.70;61.03
72525;BME280;60547;48.502;8.996;2023-07-13T01:19:55;97878.22;;;19.65;61.07
72525;BME280;60547;48.502;8.996;2023-07-13T01:22:21;97874.41;;;19.68;61.16
72525;BME280;60547;48.502;8.996;2023-07-13T01:24:50;97883.28;;;19.56;62.24
72525;BME280;60547;48.502;8.996;2023-07-13T01:27:20;97875.03;;;19.52;62.19
72525;BME280;60547;48.502;8.996;2023-07-13T01:29:46;97887.56;;;19.51;62.63
72525;BME280;60547;48.502;8.996;2023-07-13T01:32:19;97883.13;;;19.45;63.18
72525;BME280;60547;48.502;8.996;2023-07-13T01:34:51;97883.56;;;19.38;63.68
72525;BME280;60547;48.502;8.996;2023-07-13T01:37:19;97884.00;;;19.30;63.20
72525;BME280;60547;48.502;8.996;2023-07-13T01:39:45;97887.75;;;19.22;63.63
72525;BME280;60547;48.502;8.996;2023-07-13T01:42:10;97883.59;;;19.17;63.54
72525;BME280;60547;48.502;8.996;2023-07-13T01:44:36;97877.31;;;19.08;62.85
72525;BME280;60547;48.502;8.996;2023-07-13T01:47:01;97876.75;;;19.03;62.68
72525;BME280;60547;48.502;8.996;2023-07-13T01:49:27;97889.25;;;18.97;62.90
72525;BME280;60547;48.502;8.996;2023-07-13T01:51:52;97883.25;;;18.89;63.16
72525;BME280;60547;48.502;8.996;2023-07-13T01:54:18;97890.31;;;18.79;63.37
72525;BME280;60547;48.502;8.996;2023-07-13T01:56:43;97886.06;;;18.69;63.96
72525;BME280;60547;48.502;8.996;2023-07-13T01:59:09;97889.88;;;18.66;63.88
72525;BME280;60547;48.502;8.996;2023-07-13T02:01:35;97885.88;;;18.58;64.39
72525;BME280;60547;48.502;8.996;2023-07-13T02:04:00;97891.28;;;18.41;63.63
72525;BME280;60547;48.502;8.996;2023-07-13T02:06:26;97891.47;;;18.37;63.58
72525;BME280;60547;48.502;8.996;2023-07-13T02:08:51;97893.16;;;18.29;64.08
72525;BME280;60547;48.502;8.996;2023-07-13T02:11:17;97893.56;;;18.22;64.75
72525;BME280;60547;48.502;8.996;2023-07-13T02:13:42;97901.13;;;18.16;65.48
72525;BME280;60547;48.502;8.996;2023-07-13T02:16:08;97890.28;;;18.09;65.24
72525;BME280;60547;48.502;8.996;2023-07-13T02:18:33;97898.25;;;18.11;65.63
72525;BME280;60547;48.502;8.996;2023-07-13T02:20:59;97900.00;;;18.08;66.14
72525;BME280;60547;48.502;8.996;2023-07-13T02:23:24;97893.56;;;18.07;67.27
72525;BME280;60547;48.502;8.996;2023-07-13T02:25:55;97899.69;;;18.06;66.94
72525;BME280;60547;48.502;8.996;2023-07-13T02:28:20;97895.72;;;17.98;66.34
72525;BME280;60547;48.502;8.996;2023-07-13T02:30:46;97912.22;;;17.90;67.27
72525;BME280;60547;48.502;8.996;2023-07-13T02:33:11;97913.88;;;17.82;67.68
72525;BME280;60547;48.502;8.996;2023-07-13T02:35:37;97902.53;;;17.77;68.38
72525;BME280;60547;48.502;8.996;2023-07-13T02:38:02;97913.31;;;17.78;68.33
72525;BME280;60547;48.502;8.996;2023-07-13T02:40:28;97907.00;;;17.68;68.13
72525;BME280;60547;48.502;8.996;2023-07-13T02:42:53;97910.44;;;17.63;68.43
72525;BME280;60547;48.502;8.996;2023-07-13T02:45:19;97918.59;;;17.61;68.93
72525;BME280;60547;48.502;8.996;2023-07-13T02:47:44;97918.69;;;17.52;68.80
72525;BME280;60547;48.502;8.996;2023-07-13T02:50:10;97915.88;;;17.52;69.09
72525;BME280;60547;48.502;8.996;2023-07-13T02:52:35;97912.19;;;17.46;69.87
72525;BME280;60547;48.502;8.996;2023-07-13T02:55:01;97911.59;;;17.42;69.61
72525;BME280;60547;48.502;8.996;2023-07-13T02:57:26;97913.81;;;17.38;70.28
72525;BME280;60547;48.502;8.996;2023-07-13T02:59:53;97909.63;;;17.33;70.87
72525;BME280;60547;48.502;8.996;2023-07-13T03:02:20;97907.50;;;17.28;71.18
72525;BME280;60547;48.502;8.996;2023-07-13T03:04:45;97911.38;;;17.31;71.44
72525;BME280;60547;48.502;8.996;2023-07-13T03:07:11;97916.41;;;17.27;70.98
72525;BME280;60547;48.502;8.996;2023-07-13T03:09:37;97908.75;;;17.27;70.78
72525;BME280;60547;48.502;8.996;2023-07-13T03:12:02;97912.81;;;17.26;70.71
72525;BME280;60547;48.502;8.996;2023-07-13T03:14:28;97910.78;;;17.27;71.27
72525;BME280;60547;48.502;8.996;2023-07-13T03:16:54;97915.94;;;17.28;71.47
72525;BME280;60547;48.502;8.996;2023-07-13T03:19:19;97914.84;;;17.26;72.08
72525;BME280;60547;48.502;8.996;2023-07-13T03:21:45;97919.22;;;17.27;71.89
72525;BME280;60547;48.502;8.996;2023-07-13T03:24:10;97900.88;;;17.17;72.23
72525;BME280;60547;48.502;8.996;2023-07-13T03:26:36;97912.72;;;17.21;72.38
72525;BME280;60547;48.502;8.996;2023-07-13T03:29:02;97916.97;;;17.16;73.00
72525;BME280;60547;48.502;8.996;2023-07-13T03:31:31;97925.09;;;17.14;73.78
72525;BME280;60547;48.502;8.996;2023-07-13T03:33:57;97927.63;;;17.12;72.38
72525;BME280;60547;48.502;8.996;2023-07-13T03:36:25;97930.72;;;17.14;72.78
72525;BME280;60547;48.502;8.996;2023-07-13T03:38:54;97926.19;;;17.17;73.35
72525;BME280;60547;48.502;8.996;2023-07-13T03:41:20;97916.38;;;17.12;73.71
72525;BME280;60547;48.502;8.996;2023-07-13T03:43:46;97904.72;;;17.04;73.89
72525;BME280;60547;48.502;8.996;2023-07-13T03:46:15;97921.03;;;17.15;73.82
72525;BME280;60547;48.502;8.996;2023-07-13T03:48:43;97923.44;;;17.07;73.98
72525;BME280;60547;48.502;8.996;2023-07-13T03:51:10;97929.94;;;17.14;74.50
72525;BME280;60547;48.502;8.996;2023-07-13T03:53:41;97927.16;;;17.14;74.54
72525;BME280;60547;48.502;8.996;2023-07-13T03:56:08;97943.34;;;17.19;74.69
72525;BME280;60547;48.502;8.996;2023-07-13T03:58:36;97939.75;;;17.18;74.69
72525;BME280;60547;48.502;8.996;2023-07-13T04:01:04;97950.25;;;17.18;75.13
72525;BME280;60547;48.502;8.996;2023-07-13T04:03:31;97948.03;;;17.22;73.81
72525;BME280;60547;48.502;8.996;2023-07-13T04:05:59;97956.97;;;17.35;73.88
72525;BME280;60547;48.502;8.996;2023-07-13T04:08:34;97956.31;;;17.40;74.61
72525;BME280;60547;48.502;8.996;2023-07-13T04:11:01;97964.75;;;17.40;75.04
72525;BME280;60547;48.502;8.996;2023-07-13T04:13:32;97957.75;;;17.35;75.71
72525;BME280;60547;48.502;8.996;2023-07-13T04:15:58;97957.66;;;17.30;76.20
72525;BME280;60547;48.502;8.996;2023-07-13T04:18:24;97956.28;;;17.25;76.18
72525;BME280;60547;48.502;8.996;2023-07-13T04:20:50;97964.72;;;17.25;76.18
72525;BME280;60547;48.502;8.996;2023-07-13T04:23:16;97955.25;;;17.14;75.83
72525;BME280;60547;48.502;8.996;2023-07-13T04:25:49;97954.59;;;17.19;74.87
72525;BME280;60547;48.502;8.996;2023-07-13T04:28:16;97962.25;;;17.18;75.30
72525;BME280;60547;48.502;8.996;2023-07-13T04:30:43;97953.72;;;17.13;75.91
72525;BME280;60547;48.502;8.996;2023-07-13T04:33:08;97967.22;;;17.23;76.36
72525;BME280;60547;48.502;8.996;2023-07-13T04:35:34;97960.22;;;17.19;75.92
72525;BME280;60547;48.502;8.996;2023-07-13T04:38:00;97964.88;;;17.22;75.78
72525;BME280;60547;48.502;8.996;2023-07-13T04:40:27;97960.22;;;17.19;76.55
72525;BME280;60547;48.502;8.996;2023-07-13T04:42:53;97961.78;;;17.20;76.12
72525;BME280;60547;48.502;8.996;2023-07-13T04:45:18;97967.41;;;17.20;76.14
72525;BME280;60547;48.502;8.996;2023-07-13T04:47:44;97965.25;;;17.15;76.56
72525;BME280;60547;48.502;8.996;2023-07-13T04:50:09;97968.19;;;17.20;76.67
72525;BME280;60547;48.502;8.996;2023-07-13T04:52:38;97967.41;;;17.20;76.62
72525;BME280;60547;48.502;8.996;2023-07-13T04:55:03;97966.94;;;17.21;76.18
72525;BME280;60547;48.502;8.996;2023-07-13T04:57:29;97963.94;;;17.25;76.54
72525;BME280;60547;48.502;8.996;2023-07-13T04:59:55;97981.22;;;17.32;76.06
72525;BME280;60547;48.502;8.996;2023-07-13T05:02:21;97974.63;;;17.35;76.23
72525;BME280;60547;48.502;8.996;2023-07-13T05:04:47;97989.59;;;17.41;76.41
72525;BME280;60547;48.502;8.996;2023-07-13T05:07:13;97984.38;;;17.49;75.79
72525;BME280;60547;48.502;8.996;2023-07-13T05:09:38;97981.84;;;17.51;75.74
72525;BME280;60547;48.502;8.996;2023-07-13T05:12:06;97988.84;;;17.56;75.17
72525;BME280;60547;48.502;8.996;2023-07-13T05:14:32;97983.34;;;17.61;74.48
72525;BME280;60547;48.502;8.996;2023-07-13T05:16:57;97995.19;;;17.65;74.14
72525;BME280;60547;48.502;8.996;2023-07-13T05:19:23;97997.84;;;17.69;73.35
72525;BME280;60547;48.502;8.996;2023-07-13T05:21:48;98000.94;;;17.71;72.99
72525;BME280;60547;48.502;8.996;2023-07-13T05:24:14;98001.44;;;17.69;72.05
72525;BME280;60547;48.502;8.996;2023-07-13T05:26:39;98007.47;;;17.77;71.81
72525;BME280;60547;48.502;8.996;2023-07-13T05:29:05;98009.00;;;17.78;72.04
72525;BME280;60547;48.502;8.996;2023-07-13T05:31:30;98007.66;;;17.73;72.30
72525;BME280;60547;48.502;8.996;2023-07-13T05:33:56;98015.13;;;17.77;72.18
72525;BME280;60547;48.502;8.996;2023-07-13T05:36:21;98015.72;;;17.81;71.02
72525;BME280;60547;48.502;8.996;2023-07-13T05:38:47;98023.50;;;17.86;69.36
72525;BME280;60547;48.502;8.996;2023-07-13T05:41:12;98010.31;;;17.92;69.56
72525;BME280;60547;48.502;8.996;2023-07-13T05:43:37;98012.94;;;17.95;70.64
72525;BME280;60547;48.502;8.996;2023-07-13T05:46:03;98014.28;;;18.00;70.96
72525;BME280;60547;48.502;8.996;2023-07-13T05:48:28;98022.75;;;18.00;71.33
72525;BME280;60547;48.502;8.996;2023-07-13T05:50:54;98024.88;;;18.05;70.81
72525;BME280;60547;48.502;8.996;2023-07-13T05:53:19;98010.50;;;18.03;70.90
72525;BME280;60547;48.502;8.996;2023-07-13T05:55:46;98027.91;;;18.16;70.98
72525;BME280;60547;48.502;8.996;2023-07-13T05:58:19;98043.53;;;18.17;71.24
72525;BME280;60547;48.502;8.996;2023-07-13T06:00:45;98051.91;;;18.26;70.95
72525;BME280;60547;48.502;8.996;2023-07-13T06:03:11;98050.72;;;18.33;70.59
72525;BME280;60547;48.502;8.996;2023-07-13T06:05:38;98042.09;;;18.36;71.22
72525;BME280;60547;48.502;8.996;2023-07-13T06:08:04;98032.84;;;18.51;70.78
72525;BME280;60547;48.502;8.996;2023-07-13T06:10:33;98038.00;;;18.67;70.85
72525;BME280;60547;48.502;8.996;2023-07-13T06:12:58;98045.09;;;18.77;70.97
72525;BME280;60547;48.502;8.996;2023-07-13T06:15:24;98051.06;;;18.99;70.88
72525;BME280;60547;48.502;8.996;2023-07-13T06:17:49;98052.78;;;19.12;71.12
72525;BME280;60547;48.502;8.996;2023-07-13T06:20:15;98046.94;;;19.15;70.54
72525;BME280;60547;48.502;8.996;2023-07-13T06:22:40;98057.25;;;19.18;70.19
72525;BME280;60547;48.502;8.996;2023-07-13T06:25:06;98056.63;;;19.29;69.76
72525;BME280;60547;48.502;8.996;2023-07-13T06:27:32;98047.91;;;19.47;68.94
72525;BME280;60547;48.502;8.996;2023-07-13T06:29:58;98049.69;;;19.65;67.29
72525;BME280;60547;48.502;8.996;2023-07-13T06:32:23;98040.72;;;19.66;66.46
72525;BME280;60547;48.502;8.996;2023-07-13T06:34:49;98053.28;;;19.86;65.10
72525;BME280;60547;48.502;8.996;2023-07-13T06:37:17;98046.34;;;20.33;62.55
72525;BME280;60547;48.502;8.996;2023-07-13T06:39:42;98048.03;;;20.77;60.66
72525;BME280;60547;48.502;8.996;2023-07-13T06:42:08;98049.91;;;21.22;59.44
72525;BME280;60547;48.502;8.996;2023-07-13T06:44:34;98044.66;;;21.47;58.31
72525;BME280;60547;48.502;8.996;2023-07-13T06:46:59;98060.44;;;21.65;56.82
72525;BME280;60547;48.502;8.996;2023-07-13T06:49:25;98056.25;;;21.49;57.39
72525;BME280;60547;48.502;8.996;2023-07-13T06:51:50;98046.44;;;21.44;56.74
72525;BME280;60547;48.502;8.996;2023-07-13T06:54:16;98045.25;;;21.62;57.46
72525;BME280;60547;48.502;8.996;2023-07-13T06:56:41;98055.34;;;21.74;56.14
72525;BME280;60547;48.502;8.996;2023-07-13T06:59:07;98051.25;;;21.81;56.30
72525;BME280;60547;48.502;8.996;2023-07-13T07:01:33;98059.25;;;21.88;55.03
72525;BME280;60547;48.502;8.996;2023-07-13T07:03:58;98054.63;;;21.90;54.03
72525;BME280;60547;48.502;8.996;2023-07-13T07:06:24;98054.25;;;21.60;52.82
72525;BME280;60547;48.502;8.996;2023-07-13T07:08:51;98042.47;;;21.79;53.06
72525;BME280;60547;48.502;8.996;2023-07-13T07:11:19;98048.88;;;21.74;51.43
72525;BME280;60547;48.502;8.996;2023-07-13T07:13:45;98056.22;;;22.03;50.99
72525;BME280;60547;48.502;8.996;2023-07-13T07:16:10;98041.81;;;22.12;49.00
72525;BME280;60547;48.502;8.996;2023-07-13T07:18:36;98055.88;;;21.78;49.45
72525;BME280;60547;48.502;8.996;2023-07-13T07:21:02;98058.00;;;22.00;49.61
72525;BME280;60547;48.502;8.996;2023-07-13T07:23:28;98049.03;;;22.07;48.04
72525;BME280;60547;48.502;8.996;2023-07-13T07:25:53;98050.34;;;22.17;49.28
72525;BME280;60547;48.502;8.996;2023-07-13T07:28:19;98051.91;;;22.30;47.63
72525;BME280;60547;48.502;8.996;2023-07-13T07:30:46;98058.38;;;22.47;47.15
72525;BME280;60547;48.502;8.996;2023-07-13T07:33:11;98054.78;;;22.58;46.36
72525;BME280;60547;48.502;8.996;2023-07-13T07:35:37;98050.41;;;22.73;46.00
72525;BME280;60547;48.502;8.996;2023-07-13T07:38:03;98058.94;;;22.84;45.94
72525;BME280;60547;48.502;8.996;2023-07-13T07:40:28;98053.25;;;22.68;47.10
72525;BME280;60547;48.502;8.996;2023-07-13T07:42:54;98063.34;;;22.97;44.99
72525;BME280;60547;48.502;8.996;2023-07-13T07:45:20;98062.03;;;23.09;43.07
72525;BME280;60547;48.502;8.996;2023-07-13T07:47:45;98051.97;;;23.02;40.42
72525;BME280;60547;48.502;8.996;2023-07-13T07:50:11;98055.56;;;23.19;41.23
72525;BME280;60547;48.502;8.996;2023-07-13T07:52:37;98049.34;;;23.27;39.89
72525;BME280;60547;48.502;8.996;2023-07-13T07:55:04;98056.56;;;23.33;39.82
72525;BME280;60547;48.502;8.996;2023-07-13T07:57:30;98059.38;;;23.39;41.71
72525;BME280;60547;48.502;8.996;2023-07-13T07:59:56;98053.78;;;23.11;41.71
72525;BME280;60547;48.502;8.996;2023-07-13T08:02:21;98056.56;;;23.33;41.12
72525;BME280;60547;48.502;8.996;2023-07-13T08:04:47;98058.91;;;23.29;40.39
72525;BME280;60547;48.502;8.996;2023-07-13T08:07:12;98057.88;;;23.21;41.65
72525;BME280;60547;48.502;8.996;2023-07-13T08:09:38;98062.75;;;23.37;42.46
72525;BME280;60547;48.502;8.996;2023-07-13T08:12:04;98058.91;;;22.79;42.89
72525;BME280;60547;48.502;8.996;2023-07-13T08:14:30;98056.59;;;23.11;42.70
72525;BME280;60547;48.502;8.996;2023-07-13T08:16:55;98049.88;;;23.25;41.74
72525;BME280;60547;48.502;8.996;2023-07-13T08:19:20;98051.91;;;23.41;41.55
72525;BME280;60547;48.502;8.996;2023-07-13T08:21:46;98055.50;;;23.42;40.54
72525;BME280;60547;48.502;8.996;2023-07-13T08:24:13;98060.94;;;23.45;40.93
72525;BME280;60547;48.502;8.996;2023-07-13T08:26:39;98049.31;;;23.43;41.11
72525;BME280;60547;48.502;8.996;2023-07-13T08:29:05;98059.84;;;23.65;40.55
72525;BME280;60547;48.502;8.996;2023-07-13T08:31:30;98048.25;;;23.63;40.73
72525;BME280;60547;48.502;8.996;2023-07-13T08:33:56;98051.06;;;23.69;40.60
72525;BME280;60547;48.502;8.996;2023-07-13T08:36:21;98049.03;;;23.52;40.67
72525;BME280;60547;48.502;8.996;2023-07-13T08:38:47;98056.72;;;23.74;40.56
72525;BME280;60547;48.502;8.996;2023-07-13T08:41:15;98056.91;;;23.93;40.77
72525;BME280;60547;48.502;8.996;2023-07-13T08:43:42;98054.31;;;23.95;40.24
72525;BME280;60547;48.502;8.996;2023-07-13T08:46:18;98054.25;;;24.06;39.22
72525;BME280;60547;48.502;8.996;2023-07-13T08:48:47;98053.63;;;24.25;39.62
72525;BME280;60547;48.502;8.996;2023-07-13T08:54:01;98046.88;;;24.33;37.24
72525;BME280;60547;48.502;8.996;2023-07-13T08:56:29;98048.34;;;24.45;38.06
72525;BME280;60547;48.502;8.996;2023-07-13T08:58:58;98052.28;;;24.37;37.97
72525;BME280;60547;48.502;8.996;2023-07-13T09:01:54;98051.41;;;24.53;37.58
72525;BME280;60547;48.502;8.996;2023-07-13T09:04:34;98048.44;;;24.70;38.27
72525;BME280;60547;48.502;8.996;2023-07-13T09:15:30;98057.53;;;24.63;37.60
72525;BME280;60547;48.502;8.996;2023-07-13T09:18:01;98056.84;;;24.51;36.39
72525;BME280;60547;48.502;8.996;2023-07-13T09:20:34;98062.94;;;24.66;37.26
72525;BME280;60547;48.502;8.996;2023-07-13T09:23:04;98054.97;;;24.59;36.11
72525;BME280;60547;48.502;8.996;2023-07-13T09:25:36;98048.38;;;24.40;36.69
72525;BME280;60547;48.502;8.996;2023-07-13T09:28:12;98040.84;;;24.48;37.24
72525;BME280;60547;48.502;8.996;2023-07-13T09:31:19;98054.13;;;24.70;35.81
72525;BME280;60547;48.502;8.996;2023-07-13T09:33:47;98043.41;;;24.82;35.44
72525;BME280;60547;48.502;8.996;2023-07-13T09:38:44;98040.38;;;24.74;36.45
72525;BME280;60547;48.502;8.996;2023-07-13T09:46:40;98036.38;;;25.67;35.97
72525;BME280;60547;48.502;8.996;2023-07-13T09:49:10;98037.22;;;25.37;35.54
72525;BME280;60547;48.502;8.996;2023-07-13T09:51:41;98041.13;;;25.10;34.18
72525;BME280;60547;48.502;8.996;2023-07-13T09:54:21;98044.22;;;25.36;34.99
72525;BME280;60547;48.502;8.996;2023-07-13T09:56:57;98055.06;;;25.62;32.35
72525;BME280;60547;48.502;8.996;2023-07-13T09:59:27;98048.31;;;25.41;33.82
72525;BME280;60547;48.502;8.996;2023-07-13T10:01:54;98044.72;;;25.84;33.18
72525;BME280;60547;48.502;8.996;2023-07-13T10:04:26;98038.56;;;25.98;33.34
72525;BME280;60547;48.502;8.996;2023-07-13T10:07:05;98047.69;;;26.53;33.50
72525;BME280;60547;48.502;8.996;2023-07-13T10:09:31;98034.09;;;26.59;33.02
72525;BME280;60547;48.502;8.996;2023-07-13T10:11:57;98034.25;;;26.48;32.05
72525;BME280;60547;48.502;8.996;2023-07-13T10:14:23;98044.06;;;26.85;32.19
72525;BME280;60547;48.502;8.996;2023-07-13T10:16:57;98037.13;;;27.25;32.52
72525;BME280;60547;48.502;8.996;2023-07-13T10:19:26;98037.91;;;27.26;30.64
72525;BME280;60547;48.502;8.996;2023-07-13T10:21:56;98026.81;;;27.35;30.74
72525;BME280;60547;48.502;8.996;2023-07-13T10:24:24;98029.00;;;27.29;31.18
72525;BME280;60547;48.502;8.996;2023-07-13T10:29:34;98038.72;;;27.66;30.39
72525;BME280;60547;48.502;8.996;2023-07-13T10:32:04;98035.19;;;27.73;29.93
72525;BME280;60547;48.502;8.996;2023-07-13T10:34:34;98027.06;;;27.77;29.45
72525;BME280;60547;48.502;8.996;2023-07-13T10:37:01;98016.25;;;27.83;30.53
72525;BME280;60547;48.502;8.996;2023-07-13T10:39:27;98025.72;;;27.78;30.23
72525;BME280;60547;48.502;8.996;2023-07-13T10:41:55;98018.22;;;27.35;30.57
72525;BME280;60547;48.502;8.996;2023-07-13T10:44:31;98033.63;;;27.32;29.98
72525;BME280;60547;48.502;8.996;2023-07-13T10:47:03;98026.47;;;26.81;30.99
72525;BME280;60547;48.502;8.996;2023-07-13T10:49:31;98025.28;;;27.48;30.10
72525;BME280;60547;48.502;8.996;2023-07-13T10:51:57;98015.69;;;27.19;31.76
72525;BME280;60547;48.502;8.996;2023-07-13T10:54:33;98010.50;;;27.04;31.95
72525;BME280;60547;48.502;8.996;2023-07-13T10:57:20;98020.78;;;26.94;32.78
72525;BME280;60547;48.502;8.996;2023-07-13T10:59:48;98023.09;;;27.67;30.56
72525;BME280;60547;48.502;8.996;2023-07-13T11:02:27;98010.78;;;28.33;29.56
72525;BME280;60547;48.502;8.996;2023-07-13T11:04:55;98008.72;;;28.07;29.26
72525;BME280;60547;48.502;8.996;2023-07-13T11:07:25;97999.88;;;28.18;29.91
72525;BME280;60547;48.502;8.996;2023-07-13T11:09:56;98002.81;;;28.39;29.34
72525;BME280;60547;48.502;8.996;2023-07-13T11:25:33;98005.88;;;26.37;31.69
72525;BME280;60547;48.502;8.996;2023-07-13T11:28:16;98004.41;;;27.66;29.00
72525;BME280;60547;48.502;8.996;2023-07-13T11:30:43;98002.13;;;28.46;29.12
72525;BME280;60547;48.502;8.996;2023-07-13T11:35:42;97980.63;;;29.43;28.24
72525;BME280;60547;48.502;8.996;2023-07-13T11:38:21;97977.38;;;29.18;27.47
72525;BME280;60547;48.502;8.996;2023-07-13T11:40:50;97981.38;;;29.15;26.86
72525;BME280;60547;48.502;8.996;2023-07-13T11:43:17;97983.69;;;29.81;25.84
72525;BME280;60547;48.502;8.996;2023-07-13T11:45:44;97983.28;;;29.77;25.84
72525;BME280;60547;48.502;8.996;2023-07-13T11:48:25;97972.94;;;30.26;24.94
72525;BME280;60547;48.502;8.996;2023-07-13T11:51:00;97968.66;;;30.78;23.66
72525;BME280;60547;48.502;8.996;2023-07-13T11:53:34;97965.38;;;30.81;23.01
72525;BME280;60547;48.502;8.996;2023-07-13T11:56:02;97972.09;;;30.69;23.75
72525;BME280;60547;48.502;8.996;2023-07-13T11:58:28;97968.78;;;30.49;24.22
72525;BME280;60547;48.502;8.996;2023-07-13T12:00:55;97979.78;;;30.07;24.38
72525;BME280;60547;48.502;8.996;2023-07-13T12:03:24;97977.06;;;29.30;25.73
72525;BME280;60547;48.502;8.996;2023-07-13T12:06:02;97967.72;;;29.65;25.19
72525;BME280;60547;48.502;8.996;2023-07-13T12:08:31;97967.53;;;29.35;25.75
72525;BME280;60547;48.502;8.996;2023-07-13T12:11:05;97977.69;;;30.08;24.78
72525;BME280;60547;48.502;8.996;2023-07-13T12:13:37;97985.00;;;30.16;24.04
72525;BME280;60547;48.502;8.996;2023-07-13T12:16:17;97984.91;;;29.29;25.93
72525;BME280;60547;48.502;8.996;2023-07-13T12:18:48;97981.75;;;28.91;26.03
72525;BME280;60547;48.502;8.996;2023-07-13T12:21:17;97976.34;;;28.46;27.21
72525;BME280;60547;48.502;8.996;2023-07-13T12:23:45;97977.19;;;28.33;26.81
72525;BME280;60547;48.502;8.996;2023-07-13T12:26:12;97970.41;;;29.35;27.59
72525;BME280;60547;48.502;8.996;2023-07-13T12:28:48;97974.97;;;29.02;25.79
72525;BME280;60547;48.502;8.996;2023-07-13T12:31:37;97968.22;;;29.48;25.93
72525;BME280;60547;48.502;8.996;2023-07-13T12:36:56;97974.69;;;28.92;25.45
72525;BME280;60547;48.502;8.996;2023-07-13T12:39:31;97963.94;;;29.42;24.55
72525;BME280;60547;48.502;8.996;2023-07-13T12:42:18;97975.63;;;29.80;25.53
72525;BME280;60547;48.502;8.996;2023-07-13T12:44:50;97965.19;;;29.98;23.59
72525;BME280;60547;48.502;8.996;2023-07-13T12:47:16;97963.63;;;30.48;23.94
72525;BME280;60547;48.502;8.996;2023-07-13T12:50:03;97968.47;;;30.02;24.08
72525;BME280;60547;48.502;8.996;2023-07-13T12:52:33;97970.03;;;30.03;23.54
72525;BME280;60547;48.502;8.996;2023-07-13T12:55:19;97978.34;;;29.85;23.19
72525;BME280;60547;48.502;8.996;2023-07-13T12:57:57;97973.91;;;30.28;23.05
72525;BME280;60547;48.502;8.996;2023-07-13T13:00:28;97971.94;;;29.36;24.18
72525;BME280;60547;48.502;8.996;2023-07-13T13:02:56;97960.94;;;29.19;24.39
72525;BME280;60547;48.502;8.996;2023-07-13T13:05:25;97972.03;;;30.38;23.98
72525;BME280;60547;48.502;8.996;2023-07-13T13:07:51;97950.59;;;30.47;23.10
72525;BME280;60547;48.502;8.996;2023-07-13T13:10:17;97958.75;;;30.12;23.28
72525;BME280;60547;48.502;8.996;2023-07-13T13:12:43;97951.78;;;29.49;23.63
72525;BME280;60547;48.502;8.996;2023-07-13T13:15:10;97960.31;;;29.77;23.38
72525;BME280;60547;48.502;8.996;2023-07-13T13:17:37;97963.97;;;30.29;23.68
72525;BME280;60547;48.502;8.996;2023-07-13T13:20:17;97953.81;;;29.41;23.90
72525;BME280;60547;48.502;8.996;2023-07-13T13:22:43;97953.91;;;29.27;23.89
72525;BME280;60547;48.502;8.996;2023-07-13T13:25:12;97961.66;;;29.12;25.09
72525;BME280;60547;48.502;8.996;2023-07-13T13:27:39;97967.41;;;28.49;25.59
72525;BME280;60547;48.502;8.996;2023-07-13T13:30:15;97963.22;;;28.50;25.01
72525;BME280;60547;48.502;8.996;2023-07-13T13:32:43;97967.84;;;28.95;25.32
72525;BME280;60547;48.502;8.996;2023-07-13T13:35:17;97960.63;;;29.30;24.86
72525;BME280;60547;48.502;8.996;2023-07-13T13:37:43;97961.75;;;29.27;24.54
72525;BME280;60547;48.502;8.996;2023-07-13T13:40:18;97953.91;;;28.78;25.77
72525;BME280;60547;48.502;8.996;2023-07-13T13:42:43;97951.13;;;28.65;27.80
72525;BME280;60547;48.502;8.996;2023-07-13T13:45:10;97957.34;;;28.01;27.58